createdAt,value
2023-03-30T00:04:12.361Z,3.42
2023-03-30T00:09:14.661Z,3.15
2023-03-30T00:14:18.017Z,3.38
2023-03-30T00:19:19.740Z,3.80
2023-03-30T00:24:21.783Z,3.45
2023-03-30T00:29:23.620Z,3.30
2023-03-30T00:34:25.566Z,3.03
2023-03-30T00:39:27.572Z,3.20
2023-03-30T00:45:09.400Z,3.25
2023-03-30T00:50:12.617Z,3.17
2023-03-30T00:55:16.537Z,3.05
2023-03-30T01:00:19.577Z,3.20
2023-03-30T01:05:24.010Z,3.30
2023-03-30T01:10:26.045Z,3.25
2023-03-30T01:15:34.680Z,3.40
2023-03-30T01:21:04.200Z,3.13
2023-03-30T01:26:28.403Z,3.20
2023-03-30T01:32:01.092Z,3.20
2023-03-30T01:37:14.953Z,3.13
2023-03-30T01:42:35.263Z,2.58
2023-03-30T01:47:44.815Z,3.35
2023-03-30T01:52:50.471Z,3.30
2023-03-30T01:58:01.648Z,3.10
2023-03-30T02:03:13.932Z,2.92
2023-03-30T02:08:23.796Z,3.40
2023-03-30T02:13:28.518Z,3.30
2023-03-30T02:18:30.455Z,3.28
2023-03-30T02:23:36.680Z,3.33
2023-03-30T02:28:38.858Z,3.08
2023-03-30T02:33:59.007Z,3.20
2023-03-30T02:39:44.581Z,3.30
2023-03-30T02:45:35.252Z,3.35
2023-03-30T02:50:57.185Z,3.15
2023-03-30T02:56:23.723Z,2.70
2023-03-30T03:01:28.336Z,2.90
2023-03-30T03:06:32.269Z,2.97
2023-03-30T03:11:33.977Z,3.15
2023-03-30T03:16:36.047Z,2.67
2023-03-30T03:21:37.861Z,2.58
2023-03-30T03:26:39.688Z,3.00
2023-03-30T03:31:41.529Z,2.58
2023-03-30T03:36:43.649Z,2.58
2023-03-30T03:41:45.625Z,4.00
2023-03-30T03:46:47.326Z,3.15
2023-03-30T03:51:49.044Z,3.28
2023-03-30T03:56:51.962Z,2.58
2023-03-30T04:01:53.849Z,2.40
2023-03-30T04:06:56.248Z,3.30
2023-03-30T04:11:57.958Z,3.30
2023-03-30T04:16:59.638Z,3.75
2023-03-30T04:22:01.414Z,2.55
2023-03-30T04:27:03.795Z,3.08
2023-03-30T04:32:05.701Z,2.47
2023-03-30T04:37:07.428Z,3.35
2023-03-30T04:42:13.995Z,2.80
2023-03-30T04:47:15.791Z,2.70
2023-03-30T04:52:17.995Z,2.35
2023-03-30T04:57:19.783Z,2.28
2023-03-30T05:02:21.580Z,2.03
2023-03-30T05:07:23.311Z,2.15
2023-03-30T05:12:24.995Z,2.50
2023-03-30T05:17:26.767Z,2.60
2023-03-30T05:22:28.473Z,2.92
2023-03-30T05:27:30.282Z,2.10
2023-03-30T05:32:32.171Z,1.95
2023-03-30T05:37:34.098Z,2.42
2023-03-30T05:42:36.496Z,2.50
2023-03-30T05:47:38.266Z,2.50
2023-03-30T05:52:40.092Z,3.15
2023-03-30T05:57:41.833Z,2.20
2023-03-30T06:02:43.618Z,2.40
2023-03-30T06:07:45.784Z,2.60
2023-03-30T06:12:47.504Z,2.67
2023-03-30T06:17:50.008Z,2.75
2023-03-30T06:22:52.519Z,2.42
2023-03-30T06:27:54.257Z,2.28
2023-03-30T06:32:56.015Z,7.95
2023-03-30T06:37:57.792Z,2.22
2023-03-30T06:42:59.543Z,2.72
2023-03-30T06:48:01.311Z,3.25
2023-03-30T06:53:04.437Z,2.70
2023-03-30T06:58:06.406Z,2.22
2023-03-30T07:03:08.840Z,2.22
2023-03-30T07:08:10.670Z,2.20
2023-03-30T07:13:12.412Z,2.25
2023-03-30T07:18:15.359Z,2.28
2023-03-30T07:23:17.562Z,2.35
2023-03-30T07:28:19.737Z,2.55
2023-03-30T07:33:22.029Z,2.38
2023-03-30T07:38:24.705Z,2.50
2023-03-30T07:43:27.320Z,2.58
2023-03-30T07:48:29.408Z,2.70
2023-03-30T07:53:31.154Z,2.70
2023-03-30T07:58:33.139Z,3.15
2023-03-30T08:03:37.015Z,2.60
2023-03-30T08:08:41.013Z,3.45
2023-03-30T08:13:44.406Z,3.05
2023-03-30T08:18:47.276Z,3.15
2023-03-30T08:23:48.975Z,2.80
2023-03-30T08:28:51.174Z,3.05
2023-03-30T08:33:53.093Z,2.70
2023-03-30T08:38:55.246Z,3.17
2023-03-30T08:44:00.803Z,2.80
2023-03-30T08:49:06.528Z,2.95
2023-03-30T08:54:16.021Z,2.95
2023-03-30T08:59:32.962Z,3.28
2023-03-30T09:05:02.106Z,3.38
2023-03-30T09:10:04.574Z,2.88
2023-03-30T09:15:12.572Z,3.10
2023-03-30T09:20:25.435Z,3.13
2023-03-30T09:25:34.891Z,3.22
2023-03-30T09:30:46.230Z,3.15
2023-03-30T09:36:23.218Z,3.17
2023-03-30T09:41:42.445Z,2.97
2023-03-30T09:46:44.184Z,2.67
2023-03-30T09:52:07.032Z,3.08
2023-03-30T09:57:30.065Z,2.92
2023-03-30T10:02:33.934Z,3.13
2023-03-30T10:07:39.548Z,3.10
2023-03-30T10:12:41.326Z,3.70
2023-03-30T10:17:44.814Z,3.10
2023-03-30T10:23:13.413Z,2.60
2023-03-30T10:28:21.620Z,2.60
2023-03-30T10:33:24.636Z,2.50
2023-03-30T10:38:32.378Z,2.85
2023-03-30T10:43:35.905Z,2.40
2023-03-30T10:49:02.280Z,2.65
2023-03-30T10:54:33.995Z,2.40
2023-03-30T10:59:54.212Z,2.85
2023-03-30T11:05:13.570Z,2.33
2023-03-30T11:10:22.247Z,2.00
2023-03-30T11:15:41.877Z,2.35
2023-03-30T11:21:08.619Z,2.58
2023-03-30T11:26:12.683Z,2.58
2023-03-30T11:31:49.398Z,2.55
2023-03-30T11:37:27.385Z,3.10
2023-03-30T11:42:32.182Z,2.55
2023-03-30T11:47:36.917Z,2.70
2023-03-30T11:52:56.794Z,3.00
2023-03-30T11:58:29.989Z,2.80
2023-03-30T12:03:34.770Z,3.60
2023-03-30T12:08:57.855Z,3.50
2023-03-30T12:14:00.840Z,3.25
2023-03-30T12:19:10.999Z,3.13
2023-03-30T12:24:17.204Z,3.20
2023-03-30T12:34:28.659Z,3.53
2023-03-30T12:39:45.066Z,3.00
2023-03-30T12:44:56.820Z,3.10
2023-03-30T12:50:29.281Z,2.80
2023-03-30T12:55:31.189Z,2.38
2023-03-30T13:00:48.493Z,2.38
2023-03-30T13:05:53.349Z,2.20
2023-03-30T13:11:15.963Z,2.40
2023-03-30T13:16:52.202Z,2.00
2023-03-30T13:22:12.129Z,2.00
2023-03-30T13:27:13.854Z,1.58
2023-03-30T13:32:21.106Z,1.90
2023-03-30T13:37:27.561Z,1.50
2023-03-30T13:43:01.498Z,1.40
2023-03-30T13:48:12.099Z,1.88
2023-03-30T13:53:17.157Z,1.73
2023-03-30T13:58:23.284Z,1.65
2023-03-30T14:03:30.817Z,1.60
2023-03-30T14:08:35.625Z,0.57
2023-03-30T14:13:38.522Z,0.50
2023-03-30T14:18:40.355Z,1.65
2023-03-30T14:23:49.744Z,0.90
2023-03-30T14:29:00.394Z,0.90
2023-03-30T14:34:20.222Z,1.27
2023-03-30T14:39:23.891Z,1.20
2023-03-30T14:44:25.738Z,1.35
2023-03-30T14:49:29.760Z,1.50
2023-03-30T14:54:31.620Z,1.35
2023-03-30T14:59:39.686Z,1.65
2023-03-30T15:04:41.810Z,1.17
2023-03-30T15:09:46.758Z,1.08
2023-03-30T15:14:49.957Z,1.58
2023-03-30T15:19:54.448Z,1.65
2023-03-30T15:25:00.810Z,1.95
2023-03-30T15:30:02.969Z,2.60
2023-03-30T15:35:10.693Z,1.80
2023-03-30T15:40:33.139Z,1.52
2023-03-30T15:45:36.521Z,1.52
2023-03-30T15:50:38.440Z,1.35
2023-03-30T15:55:43.588Z,1.35
2023-03-30T16:00:49.203Z,1.35
2023-03-30T16:05:51.015Z,1.10
2023-03-30T16:10:53.077Z,1.45
2023-03-30T16:15:55.695Z,0.80
2023-03-30T16:20:57.433Z,0.70
2023-03-30T16:25:59.393Z,0.90
2023-03-30T16:31:06.704Z,1.15
2023-03-30T16:36:14.346Z,1.00
2023-03-30T16:41:20.595Z,0.90
2023-03-30T16:46:22.713Z,1.08
2023-03-30T16:51:25.111Z,1.00
2023-03-30T16:56:27.479Z,1.00
2023-03-30T17:01:30.241Z,0.93
2023-03-30T17:06:31.920Z,1.20
2023-03-30T17:11:33.594Z,1.00
2023-03-30T17:16:36.400Z,0.90
2023-03-30T17:21:38.177Z,1.10
2023-03-30T17:26:40.361Z,0.90
2023-03-30T17:31:45.726Z,1.00
2023-03-30T17:36:47.821Z,0.90
2023-03-30T17:41:49.601Z,1.00
2023-03-30T17:46:51.314Z,1.00
2023-03-30T17:51:53.779Z,1.13
2023-03-30T17:56:55.623Z,0.90
2023-03-30T18:01:57.341Z,0.95
2023-03-30T18:07:05.793Z,0.90
2023-03-30T18:12:07.614Z,0.82
2023-03-30T18:17:11.460Z,1.15
2023-03-30T18:22:13.163Z,1.10
2023-03-30T18:27:14.934Z,1.02
2023-03-30T18:32:16.621Z,0.95
2023-03-30T18:37:18.349Z,1.13
2023-03-30T18:42:20.077Z,1.15
2023-03-30T18:47:22.194Z,1.05
2023-03-30T18:52:23.866Z,1.20
2023-03-30T18:57:25.653Z,1.00
2023-03-30T19:02:27.527Z,1.20
2023-03-30T19:07:29.487Z,1.15
2023-03-30T19:12:31.250Z,1.65
2023-03-30T19:17:32.979Z,1.50
2023-03-30T19:22:34.703Z,1.63
2023-03-30T19:27:36.535Z,1.77
2023-03-30T19:32:38.425Z,1.70
2023-03-30T19:37:41.199Z,1.90
2023-03-30T19:42:44.218Z,1.80
2023-03-30T19:47:46.397Z,1.88
2023-03-30T19:52:50.525Z,1.80
2023-03-30T19:57:52.568Z,1.90
2023-03-30T20:02:55.417Z,2.05
2023-03-30T20:07:58.148Z,1.98
2023-03-30T20:12:59.973Z,1.90
2023-03-30T20:18:02.345Z,1.90
2023-03-30T20:23:04.319Z,1.80
2023-03-30T20:28:06.152Z,2.30
2023-03-30T20:33:08.884Z,2.17
2023-03-30T20:38:10.826Z,1.73
2023-03-30T20:43:12.690Z,1.80
2023-03-30T20:48:26.342Z,2.00
2023-03-30T20:53:29.891Z,2.20
2023-03-30T20:58:32.042Z,2.10
2023-03-30T21:03:35.375Z,2.20
2023-03-30T21:08:37.212Z,2.70
2023-03-30T21:13:38.961Z,1.50
2023-03-30T21:18:40.848Z,1.10
2023-03-30T21:23:44.194Z,1.17
2023-03-30T21:28:46.085Z,1.10
2023-03-30T21:33:47.975Z,1.17
2023-03-30T21:38:49.781Z,1.20
2023-03-30T21:43:51.546Z,1.02
2023-03-30T21:48:54.241Z,1.35
2023-03-30T21:53:57.586Z,1.10
2023-03-30T21:58:59.624Z,1.40
2023-03-30T22:04:02.681Z,1.40
2023-03-30T22:09:06.480Z,1.95
2023-03-30T22:14:08.336Z,1.50
2023-03-30T22:19:10.133Z,1.55
2023-03-30T22:24:12.742Z,1.48
2023-03-30T22:29:14.769Z,1.40
2023-03-30T22:34:16.852Z,1.40
2023-03-30T22:39:19.167Z,1.33
2023-03-30T22:44:21.422Z,1.70
2023-03-30T22:49:24.786Z,1.50
2023-03-30T22:54:26.449Z,1.42
2023-03-30T22:59:29.673Z,1.20
2023-03-30T23:04:31.438Z,1.20
2023-03-30T23:09:33.461Z,1.38
2023-03-30T23:14:37.951Z,1.30
2023-03-30T23:19:40.204Z,1.20
2023-03-30T23:24:42.379Z,1.40
2023-03-30T23:29:44.186Z,1.48
2023-03-30T23:34:46.572Z,1.20
2023-03-30T23:39:48.862Z,1.65
2023-03-30T23:44:50.671Z,1.40
2023-03-30T23:49:52.371Z,1.30
2023-03-30T23:54:54.086Z,1.40
2023-03-30T23:59:55.767Z,1.40
